Time;durP1;ratioP1;P1;durP2;ratioP2;P2;SDS_P1;SDS_P2;PMS_P1;PMS_P2;Temp;Humidity;BMP_temperature;BMP_pressure;BME280_temperature;BME280_humidity;BME280_pressure;Samples;Min_cycle;Max_cycle;Signal;HPM_P1;HPM_P2
2023/09/06 00:01:21;;;;;;;11.95;4.97;;;;;;;15.28;100.00;101496.50;4955594;28;20126;-60
2023/09/06 00:03:48;;;;;;;7.65;4.38;;;;;;;15.30;100.00;101496.34;4955417;28;20098;-60
2023/09/06 00:06:14;;;;;;;8.68;4.57;;;;;;;15.20;100.00;101493.81;4954868;28;20471;-61
2023/09/06 00:08:41;;;;;;;7.53;4.38;;;;;;;15.18;100.00;101493.13;4955108;28;20051;-60
2023/09/06 00:11:07;;;;;;;7.60;4.25;;;;;;;15.17;100.00;101489.59;4955459;28;20050;-59
2023/09/06 00:13:35;;;;;;;11.82;4.85;;;;;;;15.12;100.00;101491.97;4955166;28;20051;-61
2023/09/06 00:16:03;;;;;;;6.72;4.57;;;;;;;15.08;100.00;101485.19;4954843;28;20043;-60
2023/09/06 00:18:30;;;;;;;12.52;4.97;;;;;;;15.03;100.00;101486.75;4955571;28;20055;-60
2023/09/06 00:20:58;;;;;;;9.93;4.45;;;;;;;14.89;100.00;101482.88;4955107;28;20134;-60
2023/09/06 00:23:25;;;;;;;8.25;4.35;;;;;;;14.89;100.00;101480.19;4955207;28;20500;-60
2023/09/06 00:25:55;;;;;;;6.22;4.15;;;;;;;14.90;100.00;101479.16;4955355;28;20111;-60
2023/09/06 00:28:23;;;;;;;9.40;4.20;;;;;;;14.89;100.00;101482.88;4955294;28;20570;-59
2023/09/06 00:30:51;;;;;;;7.30;4.18;;;;;;;14.86;100.00;101475.09;4955238;28;20055;-60
2023/09/06 00:33:18;;;;;;;5.10;3.65;;;;;;;14.84;100.00;101477.13;4954910;28;20415;-60
2023/09/06 00:35:44;;;;;;;8.80;4.20;;;;;;;14.79;100.00;101476.81;4954841;28;20109;-61
2023/09/06 00:38:15;;;;;;;5.72;3.85;;;;;;;14.65;100.00;101478.28;4954830;28;20132;-60
2023/09/06 00:40:41;;;;;;;6.05;4.03;;;;;;;14.60;100.00;101478.81;4954205;28;20102;-60
2023/09/06 00:43:08;;;;;;;8.63;4.50;;;;;;;14.51;100.00;101477.09;4937846;28;20051;-61
2023/09/06 00:45:48;;;;;;;8.43;4.18;;;;;;;14.58;100.00;101477.28;4954967;28;20051;-60
2023/09/06 00:48:21;;;;;;;6.55;4.20;;;;;;;14.57;100.00;101479.13;4954491;28;20464;-60
2023/09/06 00:50:52;;;;;;;7.28;4.40;;;;;;;14.58;100.00;101478.13;4954253;28;20051;-61
2023/09/06 00:53:21;;;;;;;10.65;5.13;;;;;;;14.56;100.00;101471.19;4954361;28;20047;-59
2023/09/06 00:55:51;;;;;;;10.55;4.93;;;;;;;14.52;100.00;101463.44;4954546;28;20459;-60
2023/09/06 00:58:19;;;;;;;7.80;4.93;;;;;;;14.52;100.00;101467.97;4954694;28;20047;-61
2023/09/06 01:00:48;;;;;;;7.18;4.47;;;;;;;14.48;100.00;101463.94;4936897;28;20047;-61
2023/09/06 01:03:16;;;;;;;10.82;5.30;;;;;;;14.40;100.00;101461.25;4953695;28;20125;-60
2023/09/06 01:09:43;;;;;;;7.18;4.53;;;;;;;14.27;100.00;101459.88;4953381;28;20062;-60
2023/09/06 01:12:12;;;;;;;8.40;4.38;;;;;;;14.25;100.00;101456.50;4953844;28;20121;-60
2023/09/06 01:14:40;;;;;;;7.55;4.47;;;;;;;14.20;100.00;101455.31;4969152;28;20121;-60
2023/09/06 01:17:13;;;;;;;9.68;4.97;;;;;;;14.18;100.00;101455.44;4972325;28;20110;-61
2023/09/06 01:19:45;;;;;;;9.82;5.30;;;;;;;14.14;100.00;101456.81;4972681;28;20047;-61
2023/09/06 01:22:20;;;;;;;;;;;;;;;14.14;100.00;101456.81;4972711;28;20584;-60
2023/09/06 01:24:47;;;;;;;7.35;4.68;;;;;;;14.14;100.00;101461.34;4973180;28;19972;-58
2023/09/06 01:27:14;;;;;;;9.27;4.95;;;;;;;14.12;100.00;101456.16;4973401;28;20577;-57
2023/09/06 01:29:40;;;;;;;9.65;5.28;;;;;;;14.04;100.00;101454.25;4973307;28;20105;-58
2023/09/06 01:32:07;;;;;;;8.65;4.55;;;;;;;14.02;100.00;101458.16;4973462;28;20050;-57
2023/09/06 01:34:34;;;;;;;10.32;4.72;;;;;;;14.04;100.00;101453.41;4974389;28;20057;-57
2023/09/06 01:37:01;;;;;;;7.93;4.78;;;;;;;13.99;100.00;101451.22;4972743;28;20046;-56
2023/09/06 01:39:27;;;;;;;10.43;4.53;;;;;;;13.95;100.00;101446.31;4973697;28;20069;-56
2023/09/06 01:41:54;;;;;;;11.68;4.95;;;;;;;13.96;100.00;101445.31;4973408;28;21550;-56
2023/09/06 01:44:21;;;;;;;7.45;4.70;;;;;;;13.91;100.00;101447.63;4973613;28;20042;-56
2023/09/06 01:46:48;;;;;;;8.18;5.18;;;;;;;13.85;100.00;101441.06;4973633;28;20059;-57
2023/09/06 01:49:14;;;;;;;7.25;4.88;;;;;;;13.81;100.00;101434.31;4973700;28;20046;-56
2023/09/06 01:51:41;;;;;;;8.13;4.97;;;;;;;13.78;100.00;101435.47;4973254;28;20078;-56
2023/09/06 01:54:11;;;;;;;9.40;5.00;;;;;;;13.74;100.00;101436.78;4973692;28;20054;-55
2023/09/06 01:56:37;;;;;;;7.40;4.90;;;;;;;13.46;100.00;101424.56;4972864;28;20051;-57
2023/09/06 01:59:04;;;;;;;8.10;4.75;;;;;;;13.27;100.00;101407.63;4974529;28;20156;-57
2023/09/06 02:01:30;;;;;;;8.48;5.15;;;;;;;13.27;100.00;101396.84;4956963;28;20392;-57
2023/09/06 02:03:58;;;;;;;8.05;4.97;;;;;;;13.38;100.00;101411.03;4973338;28;20074;-57
2023/09/06 02:06:25;;;;;;;6.95;4.65;;;;;;;13.28;100.00;101403.06;4972920;28;20491;-55
2023/09/06 02:08:52;;;;;;;11.30;5.45;;;;;;;13.38;100.00;101397.56;4973383;28;20050;-57
2023/09/06 02:11:20;;;;;;;10.82;5.60;;;;;;;13.38;100.00;101397.56;4973921;28;20054;-57
2023/09/06 02:13:47;;;;;;;8.20;5.03;;;;;;;13.33;100.00;101392.66;4972211;28;20145;-57
2023/09/06 02:16:16;;;;;;;10.25;5.57;;;;;;;13.24;100.00;101383.69;4973565;28;20062;-55
2023/09/06 02:18:43;;;;;;;12.07;5.75;;;;;;;13.11;100.00;101385.97;4973376;28;20055;-56
2023/09/06 02:21:09;;;;;;;10.90;5.32;;;;;;;13.03;100.00;101367.09;4973794;28;20511;-55
2023/09/06 02:23:37;;;;;;;9.70;5.50;;;;;;;13.07;100.00;101373.84;4973388;28;20113;-56
2023/09/06 02:26:04;;;;;;;8.70;5.65;;;;;;;13.10;100.00;101378.91;4973738;28;20047;-56
2023/09/06 02:28:31;;;;;;;8.23;5.43;;;;;;;13.07;100.00;101368.44;4973733;28;20047;-57
2023/09/06 02:30:59;;;;;;;14.98;5.93;;;;;;;13.09;100.00;101378.06;4973360;28;20133;-57
2023/09/06 02:33:28;;;;;;;11.77;5.30;;;;;;;13.08;100.00;101386.31;4973276;28;20049;-57
2023/09/06 02:35:54;;;;;;;9.93;5.95;;;;;;;13.06;100.00;101388.31;4973038;28;20051;-57
2023/09/06 02:38:21;;;;;;;9.10;5.45;;;;;;;12.74;100.00;101378.16;4955422;28;20102;-57
2023/09/06 02:40:48;;;;;;;8.90;5.68;;;;;;;12.68;100.00;101363.47;4972594;28;20050;-58
2023/09/06 02:43:14;;;;;;;12.25;5.78;;;;;;;12.62;100.00;101348.78;4972754;28;20046;-57
2023/09/06 02:45:49;;;;;;;7.68;6.03;;;;;;;12.67;100.00;101353.72;4972366;28;20057;-57
2023/09/06 02:48:18;;;;;;;11.10;6.07;;;;;;;12.38;100.00;101325.28;4971688;28;20049;-55
2023/09/06 02:50:45;;;;;;;12.10;5.93;;;;;;;12.43;100.00;101326.66;4971885;28;20086;-57
2023/09/06 02:53:19;;;;;;;10.07;6.22;;;;;;;12.39;100.00;101326.97;4972649;28;20050;-55
2023/09/06 02:55:51;;;;;;;12.52;6.35;;;;;;;12.39;100.00;101324.28;4972197;28;20105;-57
2023/09/06 02:58:26;;;;;;;16.58;6.05;;;;;;;12.43;100.00;101340.94;4971959;28;20047;-55
2023/09/06 03:00:57;;;;;;;8.77;6.22;;;;;;;12.02;100.00;101286.00;4971829;28;20050;-56
2023/09/06 03:03:26;;;;;;;15.80;6.00;;;;;;;11.50;100.00;101235.63;4971696;28;20055;-56
2023/09/06 03:05:58;;;;;;;13.00;5.93;;;;;;;11.54;100.00;101236.16;4971527;28;20462;-56
2023/09/06 03:08:27;;;;;;;6.97;5.55;;;;;;;11.63;100.00;101243.31;4972112;28;20101;-55
2023/09/06 03:10:55;;;;;;;8.35;5.68;;;;;;;11.67;100.00;101253.59;4960990;28;20050;-56
2023/09/06 03:13:22;;;;;;;11.60;6.10;;;;;;;11.67;100.00;101266.22;4970132;28;20105;-55
2023/09/06 03:15:51;;;;;;;8.73;6.25;;;;;;;11.82;100.00;101291.53;4972307;28;20430;-55
2023/09/06 03:18:22;;;;;;;13.95;6.60;;;;;;;11.77;100.00;101290.31;4972943;28;20046;-56
2023/09/06 03:20:49;;;;;;;12.85;5.95;;;;;;;11.77;100.00;101283.09;4972423;28;20426;-55
2023/09/06 03:23:18;;;;;;;9.00;6.50;;;;;;;11.77;100.00;101290.31;4972806;28;20058;-55
2023/09/06 03:25:57;;;;;;;11.43;6.65;;;;;;;11.73;100.00;101284.41;4972755;28;20051;-56
2023/09/06 03:28:25;;;;;;;15.38;6.70;;;;;;;11.73;100.00;101284.41;4972646;28;20523;-55
2023/09/06 03:30:53;;;;;;;11.73;6.75;;;;;;;11.76;100.00;101280.53;4972936;28;20395;-57
2023/09/06 03:33:20;;;;;;;13.10;7.18;;;;;;;11.71;100.00;101283.72;4972393;28;20098;-56
2023/09/06 03:35:48;;;;;;;13.80;6.88;;;;;;;11.57;100.00;101268.09;4972475;28;20078;-56
2023/09/06 03:38:17;;;;;;;10.00;6.05;;;;;;;11.56;100.00;101255.66;4971919;28;20138;-57
2023/09/06 03:40:44;;;;;;;8.45;5.97;;;;;;;10.89;100.00;101172.72;4972429;28;20047;-57
2023/09/06 03:43:23;;;;;;;12.82;6.47;;;;;;;10.81;100.00;101183.38;4971980;28;20066;-56
2023/09/06 03:45:54;;;;;;;8.95;5.97;;;;;;;10.42;100.00;101115.66;4953647;28;20051;-57
2023/09/06 03:48:23;;;;;;;10.55;6.65;;;;;;;10.54;100.00;101143.13;4953491;28;20074;-57
2023/09/06 03:50:57;;;;;;;12.13;5.85;;;;;;;10.40;100.00;101133.72;4952030;28;20082;-58
2023/09/06 03:53:27;;;;;;;10.25;5.82;;;;;;;10.11;100.00;101078.41;4952365;28;20050;-57
2023/09/06 03:55:57;;;;;;;10.07;6.40;;;;;;;10.07;100.00;101082.38;4950859;28;20053;-57
2023/09/06 03:58:24;;;;;;;7.40;5.93;;;;;;;10.06;100.00;101095.91;4952621;28;20047;-55
2023/09/06 04:00:53;;;;;;;10.27;6.28;;;;;;;9.71;100.00;101057.25;4952998;28;20552;-57
2023/09/06 04:03:22;;;;;;;9.75;6.05;;;;;;;9.93;100.00;101073.00;4952831;28;20067;-55
2023/09/06 04:05:50;;;;;;;10.85;6.13;;;;;;;9.85;100.00;101077.38;4952814;28;20507;-58
2023/09/06 04:08:17;;;;;;;10.68;6.38;;;;;;;9.81;100.00;101079.50;4952211;28;20047;-56
2023/09/06 04:10:45;;;;;;;14.73;6.47;;;;;;;9.69;100.00;101067.31;4952619;28;20106;-56
2023/09/06 04:13:13;;;;;;;10.85;6.32;;;;;;;9.05;100.00;100983.97;4957127;28;20102;-57
2023/09/06 04:15:42;;;;;;;15.38;6.78;;;;;;;7.72;100.00;100773.59;4974106;28;20051;-56
2023/09/06 04:18:10;;;;;;;9.80;6.35;;;;;;;7.25;100.00;100696.00;4975272;28;20052;-57
2023/09/06 04:20:39;;;;;;;13.52;7.32;;;;;;;6.43;100.00;100567.34;4975746;28;20105;-58
2023/09/06 04:23:08;;;;;;;14.63;7.05;;;;;;;6.71;100.00;100595.03;4975790;28;20051;-56
2023/09/06 04:25:46;;;;;;;14.45;7.82;;;;;;;7.17;100.00;100670.03;4975735;28;20058;-57
2023/09/06 04:28:14;;;;;;;11.50;7.30;;;;;;;7.01;100.00;100645.72;4975357;28;20089;-57
2023/09/06 04:30:45;;;;;;;9.93;6.25;;;;;;;5.57;100.00;100419.63;4974554;28;20058;-56
2023/09/06 04:33:14;;;;;;;11.40;6.90;;;;;;;5.34;100.00;100396.88;4975626;28;20559;-57
2023/09/06 04:35:46;;;;;;;11.00;7.20;;;;;;;5.52;100.00;100422.72;4973753;28;20051;-56
2023/09/06 04:38:15;;;;;;;11.38;7.57;;;;;;;4.04;100.00;100185.75;4974511;28;20423;-56
2023/09/06 04:40:46;;;;;;;14.40;7.22;;;;;;;3.00;100.00;100015.09;4974002;28;20116;-57
2023/09/06 04:43:14;;;;;;;11.43;7.30;;;;;;;2.60;100.00;99949.53;4974334;28;20043;-57
2023/09/06 04:45:40;;;;;;;13.77;7.53;;;;;;;2.61;100.00;99945.06;4973672;28;20113;-57
2023/09/06 04:48:10;;;;;;;17.25;6.40;;;;;;;3.71;100.00;100100.09;4975459;28;20050;-55
2023/09/06 04:50:38;;;;;;;14.30;6.85;;;;;;;5.33;100.00;100360.63;4974385;28;20061;-57
2023/09/06 04:53:05;;;;;;;11.85;6.82;;;;;;;5.41;100.00;100372.25;4974616;28;20047;-57
2023/09/06 04:55:35;;;;;;;13.45;6.70;;;;;;;5.17;100.00;100343.31;4975169;28;20054;-57
2023/09/06 04:58:06;;;;;;;17.27;6.80;;;;;;;5.64;100.00;100428.75;4974298;28;20082;-56
2023/09/06 05:00:37;;;;;;;14.05;7.40;;;;;;;5.72;100.00;100425.41;4974515;28;20462;-56
2023/09/06 05:03:08;;;;;;;12.30;7.22;;;;;;;5.71;100.00;100415.75;4973888;28;20046;-57
2023/09/06 05:05:35;;;;;;;;;;;;;;;5.60;100.00;100403.41;4973991;28;20054;-57
2023/09/06 05:08:03;;;;;;;16.23;9.50;;;;;;;5.73;100.00;100421.78;4973806;28;19926;-55
2023/09/06 05:10:31;;;;;;;24.20;12.00;;;;;;;5.90;100.00;100449.56;4973936;28;20047;-57
2023/09/06 05:12:58;;;;;;;16.83;8.77;;;;;;;6.62;100.00;100555.84;4973748;28;20046;-57
2023/09/06 05:15:24;;;;;;;12.52;7.07;;;;;;;6.60;100.00;100555.16;4974159;28;20070;-58
2023/09/06 05:17:51;;;;;;;17.55;7.65;;;;;;;6.58;100.00;100554.44;4974798;28;20050;-56
2023/09/06 05:20:27;;;;;;;12.10;7.57;;;;;;;6.24;100.00;100508.66;4974690;28;20046;-57
2023/09/06 05:22:55;;;;;;;15.82;7.22;;;;;;;5.70;100.00;100438.03;4974381;28;20051;-56
2023/09/06 05:25:23;;;;;;;17.40;7.28;;;;;;;6.05;100.00;100482.81;4974017;28;20051;-56
2023/09/06 05:27:57;;;;;;;13.77;8.00;;;;;;;6.05;100.00;100488.16;4972112;28;20047;-56
2023/09/06 05:30:24;;;;;;;11.73;7.90;;;;;;;7.47;100.00;100709.09;4973946;28;20062;-57
2023/09/06 05:32:51;;;;;;;12.13;7.57;;;;;;;9.19;100.00;100982.69;4973799;28;20086;-57
2023/09/06 05:35:17;;;;;;;13.30;7.10;;;;;;;9.37;100.00;101009.59;4980229;28;20050;-59
2023/09/06 05:37:44;;;;;;;10.95;7.30;;;;;;;9.35;100.00;100998.19;4982597;28;20054;-58
2023/09/06 05:40:12;;;;;;;17.30;7.32;;;;;;;9.61;100.00;101037.69;4979879;28;20043;-58
2023/09/06 05:42:41;;;;;;;13.85;7.43;;;;;;;9.59;100.00;101028.97;4978753;28;20101;-59
2023/09/06 05:45:10;;;;;;;11.68;7.03;;;;;;;10.09;100.00;101107.19;4977615;28;20049;-59
2023/09/06 05:47:38;;;;;;;24.05;7.50;;;;;;;10.16;100.00;101118.16;4976623;28;20475;-59
2023/09/06 05:50:05;;;;;;;20.83;7.35;;;;;;;10.41;100.00;101154.19;4978362;28;20109;-59
2023/09/06 05:52:33;;;;;;;13.57;7.72;;;;;;;11.03;100.00;101246.53;4977235;28;20046;-58
2023/09/06 05:55:01;;;;;;;18.80;8.57;;;;;;;11.19;100.00;101278.09;4978210;28;20101;-58
2023/09/06 05:57:27;;;;;;;14.82;8.50;;;;;;;11.43;100.00;101301.72;4978756;28;20070;-59
2023/09/06 05:59:54;;;;;;;12.88;8.13;;;;;;;11.67;100.00;101331.56;4976847;28;20563;-60
2023/09/06 06:02:21;;;;;;;15.60;8.23;;;;;;;11.65;100.00;101346.94;4971106;28;20051;-60
2023/09/06 06:04:48;;;;;;;15.98;7.97;;;;;;;11.78;100.00;101354.66;4969831;28;20042;-59
2023/09/06 06:07:16;;;;;;;13.07;7.72;;;;;;;12.06;100.00;101393.09;4970870;28;20076;-60
2023/09/06 06:09:44;;;;;;;24.23;9.27;;;;;;;12.22;100.00;101395.09;4969695;28;20051;-61
2023/09/06 06:12:10;;;;;;;18.75;11.68;;;;;;;12.49;100.00;101412.16;4952667;28;20051;-58
2023/09/06 06:14:37;;;;;;;32.42;16.20;;;;;;;12.74;100.00;101445.47;4968956;28;20074;-60
2023/09/06 06:17:05;;;;;;;25.10;11.20;;;;;;;13.04;100.00;101479.19;4972336;28;20051;-58
2023/09/06 06:19:35;;;;;;;18.02;8.25;;;;;;;13.23;100.00;101489.78;4951480;28;20051;-60
2023/09/06 06:22:03;;;;;;;11.23;7.00;;;;;;;13.36;100.00;101513.63;4950947;28;20114;-60
2023/09/06 06:24:34;;;;;;;18.45;8.10;;;;;;;13.64;100.00;101527.75;4953014;28;20114;-61
2023/09/06 06:27:01;;;;;;;20.77;7.93;;;;;;;14.02;100.00;101553.41;4952105;28;20047;-61
2023/09/06 06:29:29;;;;;;;15.23;7.47;;;;;;;14.22;100.00;101574.72;4955295;28;20069;-60
2023/09/06 06:31:56;;;;;;;17.75;8.15;;;;;;;14.42;100.00;101586.94;4971465;28;20450;-60
2023/09/06 06:34:24;;;;;;;16.25;7.63;;;;;;;14.60;100.00;101589.53;4971701;28;20130;-59
2023/09/06 06:36:50;;;;;;;18.45;7.80;;;;;;;14.93;100.00;101603.09;4970119;28;20054;-59
2023/09/06 06:39:17;;;;;;;13.43;7.15;;;;;;;15.10;100.00;101612.91;4971406;28;20473;-59
2023/09/06 06:41:44;;;;;;;14.48;7.97;;;;;;;15.33;100.00;101617.63;4969138;28;20054;-60
2023/09/06 06:44:11;;;;;;;15.60;7.93;;;;;;;15.37;100.00;101619.00;4970540;28;20154;-60
2023/09/06 06:46:39;;;;;;;15.65;7.88;;;;;;;15.49;100.00;101623.03;4970944;28;20344;-59
2023/09/06 06:49:07;;;;;;;15.52;7.88;;;;;;;15.73;100.00;101624.03;4969767;28;20050;-60
2023/09/06 06:51:38;;;;;;;16.20;8.35;;;;;;;15.91;100.00;101621.97;4971253;28;20054;-59
2023/09/06 06:54:14;;;;;;;17.02;7.93;;;;;;;16.33;100.00;101624.34;4969969;28;20486;-59
2023/09/06 06:56:40;;;;;;;12.52;8.50;;;;;;;16.65;100.00;101638.78;4969510;28;20055;-59
2023/09/06 06:59:08;;;;;;;18.65;8.02;;;;;;;17.24;100.00;101635.50;4969573;28;20046;-60
2023/09/06 07:01:36;;;;;;;19.98;8.07;;;;;;;17.24;100.00;101630.91;4970161;28;20514;-59
2023/09/06 07:04:04;;;;;;;18.98;8.82;;;;;;;17.58;100.00;101640.47;4975443;28;20112;-57
2023/09/06 07:06:31;;;;;;;12.25;8.13;;;;;;;17.63;100.00;101648.91;4974741;28;20046;-57
2023/09/06 07:09:03;;;;;;;16.52;8.70;;;;;;;18.30;100.00;101646.13;4975251;28;20055;-58
2023/09/06 07:11:33;;;;;;;13.13;7.95;;;;;;;18.92;100.00;101650.25;4976168;28;20061;-57
2023/09/06 07:14:00;;;;;;;20.55;8.43;;;;;;;19.20;100.00;101642.16;4958797;28;20109;-59
2023/09/06 07:16:27;;;;;;;14.40;7.13;;;;;;;19.35;100.00;101642.09;4976100;28;20450;-58
2023/09/06 07:18:57;;;;;;;14.05;7.43;;;;;;;19.65;100.00;101642.72;4975920;28;20102;-59
2023/09/06 07:21:25;;;;;;;19.92;8.35;;;;;;;19.71;100.00;101647.44;4975923;28;20066;-57
2023/09/06 07:23:52;;;;;;;28.10;7.97;;;;;;;20.15;100.00;101646.25;4975783;28;20047;-59
2023/09/06 07:26:19;;;;;;;19.65;7.43;;;;;;;20.78;100.00;101648.81;4975028;28;20043;-58
2023/09/06 07:28:47;;;;;;;21.38;7.15;;;;;;;21.19;94.93;101653.34;4973632;28;20062;-58
2023/09/06 09:06:32;;;;;;;11.13;4.03;;;;;;;27.83;45.24;101656.00;5281352;23;20200;-59
2023/09/06 09:09:18;;;;;;;7.25;4.55;;;;;;;28.50;43.28;101657.78;4960283;28;20474;-60
2023/09/06 10:09:22;;;;;;;8.45;3.90;;;;;;;32.82;32.12;101652.09;4943991;28;20122;-62
2023/09/06 10:11:51;;;;;;;7.93;5.00;;;;;;;33.78;30.38;101658.00;4949718;28;20047;-60
2023/09/06 10:14:19;;;;;;;10.93;4.25;;;;;;;34.15;29.99;101656.50;4937905;28;20064;-60
2023/09/06 10:16:48;;;;;;;8.07;4.15;;;;;;;32.20;31.64;101657.16;4920471;29;20103;-60
2023/09/06 10:19:15;;;;;;;9.25;4.00;;;;;;;33.02;31.31;101652.00;4931705;29;20052;-60
2023/09/06 10:21:43;;;;;;;8.30;4.03;;;;;;;33.07;31.29;101654.75;4930764;29;20055;-61
2023/09/06 10:24:18;;;;;;;9.02;4.45;;;;;;;31.92;30.97;101658.59;4931329;29;20074;-60
2023/09/06 10:26:47;;;;;;;8.57;4.43;;;;;;;32.49;31.54;101659.28;4932230;29;20055;-61
2023/09/06 10:29:23;;;;;;;8.00;4.22;;;;;;;32.76;31.50;101672.72;4931772;29;20516;-60
2023/09/06 10:31:51;;;;;;;8.95;3.85;;;;;;;32.74;31.27;101661.06;4930562;29;20556;-60
2023/09/06 10:34:19;;;;;;;5.78;3.53;;;;;;;32.66;31.70;101662.50;4930885;29;20098;-61
2023/09/06 10:36:53;;;;;;;7.95;3.60;;;;;;;30.48;32.82;101670.69;4930113;29;20043;-61
2023/09/06 10:39:25;;;;;;;;;;;;;;;30.21;34.37;101657.84;4931943;29;20051;-60
2023/09/06 10:42:13;;;;;;;9.70;3.92;;;;;;;31.65;32.68;101661.75;4930617;29;19922;-60
2023/09/06 10:44:55;;;;;;;9.00;4.10;;;;;;;29.68;34.20;101662.50;4931686;29;20056;-59
2023/09/06 10:47:27;;;;;;;5.93;3.90;;;;;;;29.64;34.95;101661.38;4930006;29;20055;-60
2023/09/06 10:50:17;;;;;;;10.20;4.20;;;;;;;30.14;34.89;101654.50;4930282;29;20063;-61
2023/09/06 10:52:53;;;;;;;7.22;3.55;;;;;;;30.16;34.63;101652.31;4930509;29;20047;-60
2023/09/06 10:55:22;;;;;;;7.18;3.45;;;;;;;28.96;36.53;101650.00;4930024;29;20519;-60
2023/09/06 10:57:59;;;;;;;8.02;4.50;;;;;;;28.64;37.30;101642.47;4930322;29;20135;-60
2023/09/06 11:00:30;;;;;;;14.10;4.80;;;;;;;29.18;36.59;101651.84;4930301;29;20083;-60
2023/09/06 11:03:06;;;;;;;7.30;4.07;;;;;;;28.51;36.63;101651.16;4929526;29;20074;-60
2023/09/06 11:05:36;;;;;;;9.40;3.90;;;;;;;29.61;36.53;101643.38;4931900;29;20055;-61
2023/09/06 11:08:04;;;;;;;13.13;4.30;;;;;;;29.66;36.95;101639.81;4931732;29;20051;-61
2023/09/06 11:10:35;;;;;;;7.30;4.32;;;;;;;29.37;36.43;101636.56;4929737;29;20058;-60
2023/09/06 11:13:10;;;;;;;11.65;3.72;;;;;;;29.04;36.06;101635.72;4932162;29;20094;-61
2023/09/06 11:15:37;;;;;;;6.82;3.95;;;;;;;27.30;38.21;101637.25;4930441;29;20448;-60
2023/09/06 11:18:04;;;;;;;8.00;3.70;;;;;;;26.46;39.05;101636.00;4933029;29;20059;-61
2023/09/06 11:20:32;;;;;;;8.20;4.30;;;;;;;25.89;39.28;101632.25;4930827;29;20102;-60
2023/09/06 11:23:00;;;;;;;13.43;4.30;;;;;;;25.62;38.33;101643.75;4929181;29;20048;-60
2023/09/06 11:25:28;;;;;;;7.55;4.15;;;;;;;25.87;39.04;101640.75;4934694;29;20322;-60
2023/09/06 11:27:59;;;;;;;7.07;4.18;;;;;;;25.70;38.76;101628.81;4933781;29;20139;-60
2023/09/06 11:30:27;;;;;;;6.05;3.90;;;;;;;26.19;38.70;101632.13;4925249;29;20061;-60
2023/09/06 11:32:55;;;;;;;8.50;3.97;;;;;;;26.27;38.72;101628.97;4934125;28;20056;-60
2023/09/06 11:35:51;;;;;;;9.75;4.03;;;;;;;26.59;39.72;101632.13;4915855;29;20135;-60
2023/09/06 11:38:28;;;;;;;6.70;4.10;;;;;;;26.25;39.90;101625.66;4928555;29;20580;-60
2023/09/06 11:40:57;;;;;;;8.77;4.22;;;;;;;26.68;37.90;101627.03;4934295;29;20074;-60
2023/09/06 11:43:26;;;;;;;17.38;4.47;;;;;;;26.97;38.42;101623.22;4935504;29;20542;-60
2023/09/06 11:45:56;;;;;;;7.80;3.92;;;;;;;27.05;38.32;101621.13;4932850;29;20075;-61
2023/09/06 11:48:27;;;;;;;11.45;4.07;;;;;;;27.08;38.86;101629.72;4935164;29;20123;-60
2023/09/06 11:51:03;;;;;;;11.43;4.25;;;;;;;27.27;38.84;101620.13;4933078;28;20071;-61
2023/09/06 11:53:32;;;;;;;5.15;3.75;;;;;;;26.77;38.70;101629.19;4926838;29;20590;-60
2023/09/06 11:55:59;;;;;;;7.40;3.85;;;;;;;26.76;39.09;101621.19;4934141;29;20530;-61
2023/09/06 11:58:28;;;;;;;10.45;4.32;;;;;;;26.77;39.51;101618.19;4935100;29;20075;-60
2023/09/06 12:00:56;;;;;;;7.85;4.30;;;;;;;27.20;39.11;101610.38;4934225;29;20052;-61
2023/09/06 12:03:33;;;;;;;8.30;3.92;;;;;;;27.16;38.26;101614.72;4935150;29;20052;-60
2023/09/06 12:06:00;;;;;;;10.93;4.00;;;;;;;27.32;38.62;101618.59;4934147;29;20070;-60
2023/09/06 12:08:29;;;;;;;8.70;3.92;;;;;;;27.07;37.87;101619.81;4933615;29;20142;-61
2023/09/06 12:11:06;;;;;;;6.20;4.13;;;;;;;26.91;40.00;101618.69;4933855;29;20055;-61
2023/09/06 12:13:35;;;;;;;7.40;3.95;;;;;;;27.34;39.03;101611.72;4934532;29;20048;-60
2023/09/06 12:16:04;;;;;;;6.75;3.58;;;;;;;27.58;39.22;101617.88;4933719;29;20043;-61
2023/09/06 12:18:31;;;;;;;11.25;4.22;;;;;;;27.18;39.73;101610.63;4935096;29;20086;-60
2023/09/06 12:20:59;;;;;;;7.20;3.05;;;;;;;25.38;37.09;101620.91;4934132;29;20043;-61
2023/09/06 12:23:28;;;;;;;5.13;3.25;;;;;;;24.69;39.03;101615.00;4934399;29;20432;-60
2023/09/06 12:25:57;;;;;;;11.30;4.07;;;;;;;24.49;40.14;101612.50;4933419;29;20496;-60
2023/09/06 12:28:25;;;;;;;9.25;4.50;;;;;;;24.54;42.53;101612.69;4934003;29;20299;-59
2023/09/06 12:30:55;;;;;;;6.20;3.75;;;;;;;24.53;43.00;101610.16;4933980;29;20055;-59
2023/09/06 12:33:22;;;;;;;7.70;3.40;;;;;;;24.23;42.17;101604.59;4932201;29;20119;-60
2023/09/06 12:35:58;;;;;;;9.75;3.53;;;;;;;24.27;42.70;101605.84;4930776;29;20519;-59
2023/09/06 12:38:26;;;;;;;8.43;3.67;;;;;;;25.17;40.23;101608.59;4933936;29;20464;-60
2023/09/06 12:40:54;;;;;;;4.88;3.30;;;;;;;26.22;37.73;101617.88;4932712;28;20055;-61
2023/09/06 12:43:21;;;;;;;7.30;3.40;;;;;;;27.05;34.63;101610.13;4934090;29;20059;-60
2023/09/06 12:45:48;;;;;;;6.03;3.17;;;;;;;27.03;34.98;101608.44;4933568;28;20400;-59
2023/09/06 12:48:16;;;;;;;7.40;2.80;;;;;;;27.65;35.15;101604.75;4932052;29;20415;-61
2023/09/06 12:50:43;;;;;;;5.93;3.55;;;;;;;27.56;35.46;101610.97;4933015;28;20401;-59
2023/09/06 12:53:10;;;;;;;9.73;4.15;;;;;;;28.36;35.30;101602.13;4932449;29;20043;-59
2023/09/06 12:55:37;;;;;;;9.68;3.38;;;;;;;28.50;34.46;101602.59;4933388;29;20111;-59
2023/09/06 12:58:05;;;;;;;4.75;3.20;;;;;;;28.54;34.02;101594.63;4931705;29;20126;-59
2023/09/06 13:00:32;;;;;;;7.72;3.67;;;;;;;29.43;32.91;101593.19;4933178;29;20138;-60
2023/09/06 13:03:00;;;;;;;7.32;3.35;;;;;;;29.76;32.71;101595.63;4934965;28;20496;-60
2023/09/06 13:05:30;;;;;;;7.65;3.17;;;;;;;29.29;32.58;101593.66;4932143;29;20062;-60
2023/09/06 13:07:58;;;;;;;6.38;3.60;;;;;;;28.91;33.71;101580.91;4931514;29;21058;-58
2023/09/06 13:10:25;;;;;;;10.95;3.55;;;;;;;28.41;34.10;101587.53;4933400;29;20051;-60
2023/09/06 13:12:52;;;;;;;7.22;3.20;;;;;;;27.10;34.77;101585.41;4932924;29;20423;-61
2023/09/06 13:15:19;;;;;;;6.68;3.13;;;;;;;25.98;36.08;101592.34;4932924;29;20071;-59
2023/09/06 13:17:45;;;;;;;9.23;4.18;;;;;;;25.68;38.95;101595.22;4932683;28;20342;-60
2023/09/06 13:20:12;;;;;;;9.48;4.18;;;;;;;24.96;38.78;101589.88;4932537;29;20050;-60
2023/09/06 13:22:41;;;;;;;7.20;3.50;;;;;;;24.55;39.23;101588.81;4931720;29;20048;-58
2023/09/06 13:25:09;;;;;;;4.47;3.38;;;;;;;24.45;40.97;101589.38;4932079;29;20047;-59
2023/09/06 13:27:39;;;;;;;9.00;3.63;;;;;;;24.17;41.35;101588.00;4932739;29;20083;-59
2023/09/06 13:30:06;;;;;;;7.60;3.50;;;;;;;23.92;42.28;101596.34;4932797;29;20103;-59
2023/09/06 13:32:34;;;;;;;6.30;3.58;;;;;;;23.81;42.19;101590.75;4933574;29;20732;-59
2023/09/06 13:35:00;;;;;;;13.07;3.75;;;;;;;23.77;41.42;101586.78;4930224;29;20047;-59
2023/09/06 13:37:27;;;;;;;7.10;3.30;;;;;;;23.71;41.29;101589.38;4934197;28;20059;-59
2023/09/06 13:39:54;;;;;;;5.70;2.83;;;;;;;23.59;40.25;101588.41;4931662;29;20060;-59
2023/09/06 13:42:20;;;;;;;7.32;3.45;;;;;;;23.59;41.33;101580.22;4931521;29;20047;-59
2023/09/06 13:44:47;;;;;;;7.85;3.42;;;;;;;23.61;42.32;101582.75;4931156;29;20071;-60
2023/09/06 13:47:16;;;;;;;5.32;3.30;;;;;;;23.62;42.74;101579.75;4930483;29;20401;-59
2023/09/06 13:49:43;;;;;;;8.07;3.50;;;;;;;23.60;43.92;101575.56;4931823;29;20062;-59
2023/09/06 13:52:10;;;;;;;8.15;3.47;;;;;;;23.61;43.28;101575.34;4932260;29;20067;-59
2023/09/06 13:54:40;;;;;;;9.15;3.30;;;;;;;23.62;42.87;101571.53;4932171;29;20098;-59
2023/09/06 13:57:07;;;;;;;8.88;3.33;;;;;;;23.55;42.28;101565.28;4933759;29;20048;-61
2023/09/06 13:59:34;;;;;;;4.45;3.08;;;;;;;23.60;42.70;101559.97;4932417;29;20415;-59
2023/09/06 14:02:00;;;;;;;6.18;3.40;;;;;;;23.63;43.89;101558.66;4930785;28;20048;-59